sensor_id;sensor_type;location;lat;lon;timestamp;P1;durP1;ratioP1;P2;durP2;ratioP2
70433;SDS011;57876;47.792;12.960;2023-12-04T00:00:56;6.80;;;2.17;;
70433;SDS011;57876;47.792;12.960;2023-12-04T00:03:21;6.40;;;2.07;;
70433;SDS011;57876;47.792;12.960;2023-12-04T00:05:45;6.30;;;2.47;;
70433;SDS011;57876;47.792;12.960;2023-12-04T00:08:09;6.07;;;2.10;;
70433;SDS011;57876;47.792;12.960;2023-12-04T00:10:35;5.68;;;2.30;;
70433;SDS011;57876;47.792;12.960;2023-12-04T00:12:59;5.93;;;2.17;;
70433;SDS011;57876;47.792;12.960;2023-12-04T00:15:24;6.97;;;2.10;;
70433;SDS011;57876;47.792;12.960;2023-12-04T00:17:48;6.10;;;2.00;;
70433;SDS011;57876;47.792;12.960;2023-12-04T00:20:12;5.67;;;2.10;;
70433;SDS011;57876;47.792;12.960;2023-12-04T00:22:37;6.15;;;2.00;;
70433;SDS011;57876;47.792;12.960;2023-12-04T00:25:02;5.43;;;1.80;;
70433;SDS011;57876;47.792;12.960;2023-12-04T00:27:27;5.70;;;1.83;;
70433;SDS011;57876;47.792;12.960;2023-12-04T00:29:55;6.90;;;2.10;;
70433;SDS011;57876;47.792;12.960;2023-12-04T00:32:19;5.50;;;1.75;;
70433;SDS011;57876;47.792;12.960;2023-12-04T00:34:44;5.63;;;1.80;;
70433;SDS011;57876;47.792;12.960;2023-12-04T00:37:08;4.70;;;1.60;;
70433;SDS011;57876;47.792;12.960;2023-12-04T00:39:33;5.60;;;1.87;;
70433;SDS011;57876;47.792;12.960;2023-12-04T00:41:57;5.10;;;1.80;;
70433;SDS011;57876;47.792;12.960;2023-12-04T00:44:21;5.63;;;1.87;;
70433;SDS011;57876;47.792;12.960;2023-12-04T00:46:46;5.80;;;2.00;;
70433;SDS011;57876;47.792;12.960;2023-12-04T00:49:10;5.40;;;1.95;;
70433;SDS011;57876;47.792;12.960;2023-12-04T00:51:38;5.60;;;1.80;;
70433;SDS011;57876;47.792;12.960;2023-12-04T00:54:03;5.40;;;1.70;;
70433;SDS011;57876;47.792;12.960;2023-12-04T00:56:27;6.10;;;1.73;;
70433;SDS011;57876;47.792;12.960;2023-12-04T00:58:51;5.17;;;1.70;;
70433;SDS011;57876;47.792;12.960;2023-12-04T01:01:16;5.07;;;1.80;;
70433;SDS011;57876;47.792;12.960;2023-12-04T01:03:40;5.40;;;1.50;;
70433;SDS011;57876;47.792;12.960;2023-12-04T01:06:04;5.40;;;1.80;;
70433;SDS011;57876;47.792;12.960;2023-12-04T01:08:29;5.50;;;1.70;;
70433;SDS011;57876;47.792;12.960;2023-12-04T01:10:53;4.93;;;1.73;;
70433;SDS011;57876;47.792;12.960;2023-12-04T01:13:18;5.33;;;1.57;;
70433;SDS011;57876;47.792;12.960;2023-12-04T01:15:42;5.27;;;1.80;;
70433;SDS011;57876;47.792;12.960;2023-12-04T01:18:07;4.93;;;1.50;;
70433;SDS011;57876;47.792;12.960;2023-12-04T01:20:31;5.53;;;1.60;;
70433;SDS011;57876;47.792;12.960;2023-12-04T01:22:57;4.78;;;1.52;;
70433;SDS011;57876;47.792;12.960;2023-12-04T01:25:21;5.33;;;1.70;;
70433;SDS011;57876;47.792;12.960;2023-12-04T01:27:46;5.43;;;1.60;;
70433;SDS011;57876;47.792;12.960;2023-12-04T01:30:10;5.10;;;1.60;;
70433;SDS011;57876;47.792;12.960;2023-12-04T01:32:35;5.13;;;1.58;;
70433;SDS011;57876;47.792;12.960;2023-12-04T01:35:00;4.63;;;1.40;;
70433;SDS011;57876;47.792;12.960;2023-12-04T01:37:25;4.95;;;1.52;;
70433;SDS011;57876;47.792;12.960;2023-12-04T01:39:49;5.17;;;1.67;;
70433;SDS011;57876;47.792;12.960;2023-12-04T01:42:14;4.68;;;1.35;;
70433;SDS011;57876;47.792;12.960;2023-12-04T01:44:38;5.10;;;1.80;;
70433;SDS011;57876;47.792;12.960;2023-12-04T01:47:03;5.43;;;1.83;;
70433;SDS011;57876;47.792;12.960;2023-12-04T01:49:28;5.53;;;1.60;;
70433;SDS011;57876;47.792;12.960;2023-12-04T01:51:52;5.07;;;1.70;;
70433;SDS011;57876;47.792;12.960;2023-12-04T01:54:17;5.13;;;1.60;;
70433;SDS011;57876;47.792;12.960;2023-12-04T01:56:42;4.80;;;1.50;;
70433;SDS011;57876;47.792;12.960;2023-12-04T01:59:08;4.50;;;1.23;;
70433;SDS011;57876;47.792;12.960;2023-12-04T02:01:32;4.60;;;1.40;;
70433;SDS011;57876;47.792;12.960;2023-12-04T02:03:57;5.27;;;1.70;;
70433;SDS011;57876;47.792;12.960;2023-12-04T02:06:23;4.63;;;1.42;;
70433;SDS011;57876;47.792;12.960;2023-12-04T02:08:49;5.15;;;1.50;;
70433;SDS011;57876;47.792;12.960;2023-12-04T02:11:13;5.00;;;1.40;;
70433;SDS011;57876;47.792;12.960;2023-12-04T02:13:38;5.37;;;1.57;;
70433;SDS011;57876;47.792;12.960;2023-12-04T02:16:03;5.03;;;1.40;;
70433;SDS011;57876;47.792;12.960;2023-12-04T02:18:33;5.07;;;1.35;;
70433;SDS011;57876;47.792;12.960;2023-12-04T02:20:58;4.50;;;1.50;;
70433;SDS011;57876;47.792;12.960;2023-12-04T02:23:25;5.03;;;1.40;;
70433;SDS011;57876;47.792;12.960;2023-12-04T02:25:49;4.60;;;1.38;;
70433;SDS011;57876;47.792;12.960;2023-12-04T02:28:16;4.27;;;1.40;;
70433;SDS011;57876;47.792;12.960;2023-12-04T02:30:43;5.28;;;1.58;;
70433;SDS011;57876;47.792;12.960;2023-12-04T02:33:10;4.80;;;1.40;;
70433;SDS011;57876;47.792;12.960;2023-12-04T02:35:37;4.72;;;1.38;;
70433;SDS011;57876;47.792;12.960;2023-12-04T02:38:04;4.68;;;1.40;;
70433;SDS011;57876;47.792;12.960;2023-12-04T02:40:32;5.10;;;1.50;;
70433;SDS011;57876;47.792;12.960;2023-12-04T02:42:56;4.93;;;1.30;;
70433;SDS011;57876;47.792;12.960;2023-12-04T02:45:21;5.87;;;1.60;;
70433;SDS011;57876;47.792;12.960;2023-12-04T02:47:46;5.05;;;1.23;;
70433;SDS011;57876;47.792;12.960;2023-12-04T02:50:10;4.70;;;1.50;;
70433;SDS011;57876;47.792;12.960;2023-12-04T02:52:35;5.30;;;1.50;;
70433;SDS011;57876;47.792;12.960;2023-12-04T02:54:59;4.50;;;1.20;;
70433;SDS011;57876;47.792;12.960;2023-12-04T02:57:23;5.10;;;1.50;;
70433;SDS011;57876;47.792;12.960;2023-12-04T02:59:48;4.40;;;1.30;;
70433;SDS011;57876;47.792;12.960;2023-12-04T03:02:13;4.40;;;1.20;;
70433;SDS011;57876;47.792;12.960;2023-12-04T03:04:37;5.23;;;1.30;;
70433;SDS011;57876;47.792;12.960;2023-12-04T03:07:01;4.50;;;1.30;;
70433;SDS011;57876;47.792;12.960;2023-12-04T03:09:26;4.20;;;1.07;;
70433;SDS011;57876;47.792;12.960;2023-12-04T03:11:50;4.70;;;1.40;;
70433;SDS011;57876;47.792;12.960;2023-12-04T03:14:15;4.83;;;1.17;;
70433;SDS011;57876;47.792;12.960;2023-12-04T03:16:39;5.03;;;1.30;;
70433;SDS011;57876;47.792;12.960;2023-12-04T03:19:04;4.60;;;1.37;;
70433;SDS011;57876;47.792;12.960;2023-12-04T03:21:28;4.80;;;1.30;;
70433;SDS011;57876;47.792;12.960;2023-12-04T03:23:53;4.70;;;1.33;;
70433;SDS011;57876;47.792;12.960;2023-12-04T03:26:17;4.93;;;1.40;;
70433;SDS011;57876;47.792;12.960;2023-12-04T03:28:41;4.53;;;1.23;;
70433;SDS011;57876;47.792;12.960;2023-12-04T03:31:06;4.67;;;1.13;;
70433;SDS011;57876;47.792;12.960;2023-12-04T03:33:30;5.05;;;1.30;;
70433;SDS011;57876;47.792;12.960;2023-12-04T03:35:55;4.57;;;1.30;;
70433;SDS011;57876;47.792;12.960;2023-12-04T03:38:19;4.50;;;1.30;;
70433;SDS011;57876;47.792;12.960;2023-12-04T03:40:43;4.27;;;1.10;;
70433;SDS011;57876;47.792;12.960;2023-12-04T03:43:08;4.67;;;1.20;;
70433;SDS011;57876;47.792;12.960;2023-12-04T03:45:32;4.07;;;1.10;;
70433;SDS011;57876;47.792;12.960;2023-12-04T03:47:57;4.63;;;1.20;;
70433;SDS011;57876;47.792;12.960;2023-12-04T03:50:21;4.27;;;1.20;;
70433;SDS011;57876;47.792;12.960;2023-12-04T03:52:45;4.20;;;1.00;;
70433;SDS011;57876;47.792;12.960;2023-12-04T03:55:10;4.47;;;1.20;;
70433;SDS011;57876;47.792;12.960;2023-12-04T03:57:34;4.65;;;1.30;;
70433;SDS011;57876;47.792;12.960;2023-12-04T03:59:58;4.40;;;1.20;;
70433;SDS011;57876;47.792;12.960;2023-12-04T04:02:23;4.47;;;1.20;;
70433;SDS011;57876;47.792;12.960;2023-12-04T04:04:47;4.13;;;1.10;;
70433;SDS011;57876;47.792;12.960;2023-12-04T04:07:12;3.90;;;1.10;;
70433;SDS011;57876;47.792;12.960;2023-12-04T04:09:36;4.50;;;1.20;;
70433;SDS011;57876;47.792;12.960;2023-12-04T04:12:00;4.37;;;1.20;;
70433;SDS011;57876;47.792;12.960;2023-12-04T04:14:25;4.27;;;1.27;;
70433;SDS011;57876;47.792;12.960;2023-12-04T04:16:49;4.47;;;1.20;;
70433;SDS011;57876;47.792;12.960;2023-12-04T04:19:14;4.45;;;1.10;;
70433;SDS011;57876;47.792;12.960;2023-12-04T04:21:41;4.10;;;0.90;;
70433;SDS011;57876;47.792;12.960;2023-12-04T04:24:05;3.97;;;0.98;;
70433;SDS011;57876;47.792;12.960;2023-12-04T04:26:30;4.10;;;1.10;;
70433;SDS011;57876;47.792;12.960;2023-12-04T04:28:54;4.77;;;1.00;;
70433;SDS011;57876;47.792;12.960;2023-12-04T04:31:19;4.40;;;1.00;;
70433;SDS011;57876;47.792;12.960;2023-12-04T04:33:43;4.30;;;1.00;;
70433;SDS011;57876;47.792;12.960;2023-12-04T04:36:09;4.00;;;1.00;;
70433;SDS011;57876;47.792;12.960;2023-12-04T04:38:34;4.40;;;0.90;;
70433;SDS011;57876;47.792;12.960;2023-12-04T04:40:58;4.47;;;1.00;;
70433;SDS011;57876;47.792;12.960;2023-12-04T04:43:22;4.30;;;0.93;;
70433;SDS011;57876;47.792;12.960;2023-12-04T04:45:47;5.03;;;1.10;;
70433;SDS011;57876;47.792;12.960;2023-12-04T04:48:11;4.47;;;1.03;;
70433;SDS011;57876;47.792;12.960;2023-12-04T04:50:35;4.40;;;1.10;;
70433;SDS011;57876;47.792;12.960;2023-12-04T04:53:00;4.03;;;1.00;;
70433;SDS011;57876;47.792;12.960;2023-12-04T04:55:24;4.32;;;1.00;;
70433;SDS011;57876;47.792;12.960;2023-12-04T04:57:48;4.30;;;1.00;;
70433;SDS011;57876;47.792;12.960;2023-12-04T05:00:13;5.13;;;1.00;;
70433;SDS011;57876;47.792;12.960;2023-12-04T05:02:38;4.15;;;1.00;;
70433;SDS011;57876;47.792;12.960;2023-12-04T05:05:02;3.77;;;0.73;;
70433;SDS011;57876;47.792;12.960;2023-12-04T05:07:28;4.32;;;0.90;;
70433;SDS011;57876;47.792;12.960;2023-12-04T05:09:53;4.10;;;1.10;;
70433;SDS011;57876;47.792;12.960;2023-12-04T05:12:17;4.30;;;1.10;;
70433;SDS011;57876;47.792;12.960;2023-12-04T05:14:41;3.80;;;0.97;;
70433;SDS011;57876;47.792;12.960;2023-12-04T05:17:06;4.00;;;0.90;;
70433;SDS011;57876;47.792;12.960;2023-12-04T05:19:30;4.10;;;1.20;;
70433;SDS011;57876;47.792;12.960;2023-12-04T05:21:54;4.30;;;1.10;;
70433;SDS011;57876;47.792;12.960;2023-12-04T05:24:19;4.07;;;0.97;;
70433;SDS011;57876;47.792;12.960;2023-12-04T05:26:43;4.47;;;1.00;;
70433;SDS011;57876;47.792;12.960;2023-12-04T05:29:07;4.40;;;1.10;;
70433;SDS011;57876;47.792;12.960;2023-12-04T05:31:32;4.10;;;0.83;;
70433;SDS011;57876;47.792;12.960;2023-12-04T05:33:56;4.50;;;1.10;;
70433;SDS011;57876;47.792;12.960;2023-12-04T05:36:20;3.80;;;1.00;;
70433;SDS011;57876;47.792;12.960;2023-12-04T05:38:45;4.23;;;1.03;;
70433;SDS011;57876;47.792;12.960;2023-12-04T05:41:09;3.90;;;0.90;;
70433;SDS011;57876;47.792;12.960;2023-12-04T05:43:34;4.00;;;0.97;;
70433;SDS011;57876;47.792;12.960;2023-12-04T05:45:58;5.13;;;1.33;;
70433;SDS011;57876;47.792;12.960;2023-12-04T05:48:22;4.27;;;1.00;;
70433;SDS011;57876;47.792;12.960;2023-12-04T05:50:47;4.00;;;1.13;;
70433;SDS011;57876;47.792;12.960;2023-12-04T05:53:11;4.20;;;1.00;;
70433;SDS011;57876;47.792;12.960;2023-12-04T05:55:36;4.20;;;1.17;;
70433;SDS011;57876;47.792;12.960;2023-12-04T05:58:00;4.87;;;1.20;;
70433;SDS011;57876;47.792;12.960;2023-12-04T06:00:24;3.92;;;0.80;;
70433;SDS011;57876;47.792;12.960;2023-12-04T06:02:49;4.30;;;0.90;;
70433;SDS011;57876;47.792;12.960;2023-12-04T06:05:13;4.07;;;1.00;;
70433;SDS011;57876;47.792;12.960;2023-12-04T06:07:38;4.53;;;1.17;;
70433;SDS011;57876;47.792;12.960;2023-12-04T06:10:03;4.45;;;1.00;;
70433;SDS011;57876;47.792;12.960;2023-12-04T06:12:31;4.00;;;1.00;;
70433;SDS011;57876;47.792;12.960;2023-12-04T06:14:55;4.13;;;1.00;;
70433;SDS011;57876;47.792;12.960;2023-12-04T06:17:20;4.33;;;1.10;;
70433;SDS011;57876;47.792;12.960;2023-12-04T06:19:45;4.00;;;0.97;;
70433;SDS011;57876;47.792;12.960;2023-12-04T06:22:10;4.88;;;1.17;;
70433;SDS011;57876;47.792;12.960;2023-12-04T06:24:35;4.30;;;1.10;;
70433;SDS011;57876;47.792;12.960;2023-12-04T06:27:00;4.37;;;1.10;;
70433;SDS011;57876;47.792;12.960;2023-12-04T06:29:24;4.30;;;0.90;;
70433;SDS011;57876;47.792;12.960;2023-12-04T06:31:49;4.20;;;1.10;;
70433;SDS011;57876;47.792;12.960;2023-12-04T06:34:14;4.10;;;0.95;;
70433;SDS011;57876;47.792;12.960;2023-12-04T06:36:38;3.67;;;0.83;;
70433;SDS011;57876;47.792;12.960;2023-12-04T06:39:06;4.20;;;1.00;;
70433;SDS011;57876;47.792;12.960;2023-12-04T06:41:34;4.00;;;0.95;;
70433;SDS011;57876;47.792;12.960;2023-12-04T06:43:58;4.43;;;1.27;;
70433;SDS011;57876;47.792;12.960;2023-12-04T06:46:23;4.65;;;0.95;;
70433;SDS011;57876;47.792;12.960;2023-12-04T06:48:49;4.30;;;1.00;;
70433;SDS011;57876;47.792;12.960;2023-12-04T06:51:18;4.20;;;1.10;;
70433;SDS011;57876;47.792;12.960;2023-12-04T06:53:43;4.90;;;1.00;;
70433;SDS011;57876;47.792;12.960;2023-12-04T06:56:07;5.07;;;1.00;;
70433;SDS011;57876;47.792;12.960;2023-12-04T06:58:32;4.07;;;1.00;;
70433;SDS011;57876;47.792;12.960;2023-12-04T07:00:56;4.20;;;0.90;;
70433;SDS011;57876;47.792;12.960;2023-12-04T07:03:21;4.32;;;0.98;;
70433;SDS011;57876;47.792;12.960;2023-12-04T07:05:45;4.17;;;1.00;;
70433;SDS011;57876;47.792;12.960;2023-12-04T07:08:09;5.87;;;1.20;;
70433;SDS011;57876;47.792;12.960;2023-12-04T07:10:34;5.27;;;1.13;;
70433;SDS011;57876;47.792;12.960;2023-12-04T07:12:59;4.93;;;1.10;;
70433;SDS011;57876;47.792;12.960;2023-12-04T07:15:24;4.55;;;1.25;;
70433;SDS011;57876;47.792;12.960;2023-12-04T07:17:48;4.43;;;1.10;;
70433;SDS011;57876;47.792;12.960;2023-12-04T07:20:13;5.43;;;1.33;;
70433;SDS011;57876;47.792;12.960;2023-12-04T07:22:37;4.93;;;1.27;;
70433;SDS011;57876;47.792;12.960;2023-12-04T07:25:01;5.80;;;1.30;;
70433;SDS011;57876;47.792;12.960;2023-12-04T07:27:26;4.90;;;1.40;;
70433;SDS011;57876;47.792;12.960;2023-12-04T07:29:50;4.83;;;1.47;;
70433;SDS011;57876;47.792;12.960;2023-12-04T07:32:15;4.70;;;1.40;;
70433;SDS011;57876;47.792;12.960;2023-12-04T07:34:39;4.50;;;1.20;;
70433;SDS011;57876;47.792;12.960;2023-12-04T07:37:03;4.93;;;1.40;;
70433;SDS011;57876;47.792;12.960;2023-12-04T07:39:28;4.67;;;1.40;;
70433;SDS011;57876;47.792;12.960;2023-12-04T07:41:53;4.57;;;1.40;;
70433;SDS011;57876;47.792;12.960;2023-12-04T07:44:17;5.23;;;1.50;;
70433;SDS011;57876;47.792;12.960;2023-12-04T07:46:42;4.73;;;1.60;;
70433;SDS011;57876;47.792;12.960;2023-12-04T07:49:06;5.07;;;1.70;;
70433;SDS011;57876;47.792;12.960;2023-12-04T07:51:30;6.80;;;1.93;;
70433;SDS011;57876;47.792;12.960;2023-12-04T07:53:55;5.13;;;1.80;;
70433;SDS011;57876;47.792;12.960;2023-12-04T07:56:19;5.93;;;1.83;;
70433;SDS011;57876;47.792;12.960;2023-12-04T07:58:44;5.57;;;1.98;;
70433;SDS011;57876;47.792;12.960;2023-12-04T08:01:08;5.10;;;1.60;;
70433;SDS011;57876;47.792;12.960;2023-12-04T08:03:33;6.20;;;1.90;;
70433;SDS011;57876;47.792;12.960;2023-12-04T08:05:57;5.30;;;1.73;;
70433;SDS011;57876;47.792;12.960;2023-12-04T08:08:22;6.13;;;1.90;;
70433;SDS011;57876;47.792;12.960;2023-12-04T08:10:47;5.73;;;1.63;;
70433;SDS011;57876;47.792;12.960;2023-12-04T08:13:11;5.30;;;1.60;;
70433;SDS011;57876;47.792;12.960;2023-12-04T08:15:36;6.07;;;1.90;;
70433;SDS011;57876;47.792;12.960;2023-12-04T08:18:00;5.57;;;1.87;;
70433;SDS011;57876;47.792;12.960;2023-12-04T08:20:24;4.97;;;1.60;;
70433;SDS011;57876;47.792;12.960;2023-12-04T08:22:49;6.10;;;1.90;;
70433;SDS011;57876;47.792;12.960;2023-12-04T08:25:13;6.43;;;2.00;;
70433;SDS011;57876;47.792;12.960;2023-12-04T08:27:38;5.47;;;1.70;;
70433;SDS011;57876;47.792;12.960;2023-12-04T08:30:05;5.03;;;1.77;;
70433;SDS011;57876;47.792;12.960;2023-12-04T08:32:30;5.30;;;1.73;;
70433;SDS011;57876;47.792;12.960;2023-12-04T08:34:55;5.55;;;1.90;;
70433;SDS011;57876;47.792;12.960;2023-12-04T08:37:19;5.00;;;1.80;;
70433;SDS011;57876;47.792;12.960;2023-12-04T08:39:44;6.70;;;2.10;;
70433;SDS011;57876;47.792;12.960;2023-12-04T08:42:08;5.43;;;1.97;;
70433;SDS011;57876;47.792;12.960;2023-12-04T08:44:34;6.60;;;2.20;;
70433;SDS011;57876;47.792;12.960;2023-12-04T08:46:59;9.68;;;2.17;;
70433;SDS011;57876;47.792;12.960;2023-12-04T08:49:23;5.50;;;1.88;;
70433;SDS011;57876;47.792;12.960;2023-12-04T08:51:48;5.57;;;2.00;;
70433;SDS011;57876;47.792;12.960;2023-12-04T08:54:12;5.00;;;1.70;;
70433;SDS011;57876;47.792;12.960;2023-12-04T08:56:36;6.27;;;1.97;;
70433;SDS011;57876;47.792;12.960;2023-12-04T08:59:01;5.50;;;1.70;;
70433;SDS011;57876;47.792;12.960;2023-12-04T09:01:25;5.70;;;1.90;;
70433;SDS011;57876;47.792;12.960;2023-12-04T09:03:51;5.50;;;1.85;;
70433;SDS011;57876;47.792;12.960;2023-12-04T09:06:16;5.50;;;1.70;;
70433;SDS011;57876;47.792;12.960;2023-12-04T09:08:40;6.78;;;1.73;;
70433;SDS011;57876;47.792;12.960;2023-12-04T09:11:05;5.47;;;1.90;;
70433;SDS011;57876;47.792;12.960;2023-12-04T09:13:29;6.43;;;1.60;;
70433;SDS011;57876;47.792;12.960;2023-12-04T09:15:55;5.65;;;1.75;;
70433;SDS011;57876;47.792;12.960;2023-12-04T09:18:20;6.88;;;1.85;;
70433;SDS011;57876;47.792;12.960;2023-12-04T09:20:44;6.00;;;1.90;;
70433;SDS011;57876;47.792;12.960;2023-12-04T09:23:09;5.43;;;1.73;;
70433;SDS011;57876;47.792;12.960;2023-12-04T09:25:33;8.30;;;2.08;;
70433;SDS011;57876;47.792;12.960;2023-12-04T09:27:58;5.97;;;1.77;;
70433;SDS011;57876;47.792;12.960;2023-12-04T09:30:22;5.87;;;1.90;;
70433;SDS011;57876;47.792;12.960;2023-12-04T09:32:46;5.73;;;1.80;;
70433;SDS011;57876;47.792;12.960;2023-12-04T09:35:11;5.77;;;2.10;;
70433;SDS011;57876;47.792;12.960;2023-12-04T09:37:35;5.80;;;1.97;;
70433;SDS011;57876;47.792;12.960;2023-12-04T09:40:00;6.33;;;1.97;;
70433;SDS011;57876;47.792;12.960;2023-12-04T09:42:24;6.43;;;1.87;;
70433;SDS011;57876;47.792;12.960;2023-12-04T09:44:49;6.50;;;1.92;;
70433;SDS011;57876;47.792;12.960;2023-12-04T09:47:19;6.35;;;1.80;;
70433;SDS011;57876;47.792;12.960;2023-12-04T09:49:45;5.05;;;1.55;;
70433;SDS011;57876;47.792;12.960;2023-12-04T09:52:09;6.63;;;1.90;;
70433;SDS011;57876;47.792;12.960;2023-12-04T09:54:35;6.13;;;1.90;;
70433;SDS011;57876;47.792;12.960;2023-12-04T09:57:00;5.35;;;1.80;;
70433;SDS011;57876;47.792;12.960;2023-12-04T09:59:25;5.13;;;1.63;;
70433;SDS011;57876;47.792;12.960;2023-12-04T10:01:50;5.50;;;1.90;;
70433;SDS011;57876;47.792;12.960;2023-12-04T10:04:15;6.83;;;1.80;;
70433;SDS011;57876;47.792;12.960;2023-12-04T10:06:39;6.47;;;2.30;;
70433;SDS011;57876;47.792;12.960;2023-12-04T10:09:04;6.17;;;1.90;;
70433;SDS011;57876;47.792;12.960;2023-12-04T10:11:38;5.60;;;1.73;;
70433;SDS011;57876;47.792;12.960;2023-12-04T10:14:04;5.45;;;1.70;;
70433;SDS011;57876;47.792;12.960;2023-12-04T10:16:33;5.60;;;1.92;;
70433;SDS011;57876;47.792;12.960;2023-12-04T10:19:13;6.30;;;1.85;;
70433;SDS011;57876;47.792;12.960;2023-12-04T10:21:39;5.90;;;1.60;;
70433;SDS011;57876;47.792;12.960;2023-12-04T10:24:03;5.57;;;2.07;;
70433;SDS011;57876;47.792;12.960;2023-12-04T10:26:28;5.73;;;1.80;;
70433;SDS011;57876;47.792;12.960;2023-12-04T10:28:59;6.20;;;1.90;;
70433;SDS011;57876;47.792;12.960;2023-12-04T10:31:24;5.85;;;2.10;;
70433;SDS011;57876;47.792;12.960;2023-12-04T10:33:49;5.83;;;1.90;;
70433;SDS011;57876;47.792;12.960;2023-12-04T10:36:13;5.30;;;1.80;;
70433;SDS011;57876;47.792;12.960;2023-12-04T10:38:37;5.55;;;2.00;;
70433;SDS011;57876;47.792;12.960;2023-12-04T10:41:11;5.70;;;1.50;;
70433;SDS011;57876;47.792;12.960;2023-12-04T10:43:46;5.13;;;1.83;;
70433;SDS011;57876;47.792;12.960;2023-12-04T10:46:12;5.63;;;1.80;;
70433;SDS011;57876;47.792;12.960;2023-12-04T10:48:40;5.72;;;1.90;;
70433;SDS011;57876;47.792;12.960;2023-12-04T10:51:06;5.65;;;1.98;;
70433;SDS011;57876;47.792;12.960;2023-12-04T10:53:30;6.20;;;2.00;;
70433;SDS011;57876;47.792;12.960;2023-12-04T10:55:55;5.00;;;1.70;;
70433;SDS011;57876;47.792;12.960;2023-12-04T10:58:23;6.67;;;1.77;;
70433;SDS011;57876;47.792;12.960;2023-12-04T11:00:50;5.68;;;1.70;;
70433;SDS011;57876;47.792;12.960;2023-12-04T11:03:21;5.60;;;1.83;;
70433;SDS011;57876;47.792;12.960;2023-12-04T11:05:56;5.28;;;1.77;;
70433;SDS011;57876;47.792;12.960;2023-12-04T11:08:25;4.93;;;1.60;;
70433;SDS011;57876;47.792;12.960;2023-12-04T11:10:58;5.47;;;1.70;;
70433;SDS011;57876;47.792;12.960;2023-12-04T11:13:27;6.82;;;1.60;;
70433;SDS011;57876;47.792;12.960;2023-12-04T11:15:54;5.95;;;1.85;;
70433;SDS011;57876;47.792;12.960;2023-12-04T11:18:23;5.55;;;1.77;;
70433;SDS011;57876;47.792;12.960;2023-12-04T11:20:56;6.07;;;2.10;;
70433;SDS011;57876;47.792;12.960;2023-12-04T11:23:23;6.27;;;1.67;;
70433;SDS011;57876;47.792;12.960;2023-12-04T11:25:49;5.65;;;1.80;;
70433;SDS011;57876;47.792;12.960;2023-12-04T11:28:14;6.25;;;1.77;;
70433;SDS011;57876;47.792;12.960;2023-12-04T11:30:40;5.60;;;1.60;;
70433;SDS011;57876;47.792;12.960;2023-12-04T11:33:05;5.35;;;1.90;;
70433;SDS011;57876;47.792;12.960;2023-12-04T11:35:29;5.53;;;1.80;;
70433;SDS011;57876;47.792;12.960;2023-12-04T11:37:54;5.27;;;1.70;;
70433;SDS011;57876;47.792;12.960;2023-12-04T11:40:19;5.97;;;1.80;;
70433;SDS011;57876;47.792;12.960;2023-12-04T11:42:43;6.10;;;1.90;;
70433;SDS011;57876;47.792;12.960;2023-12-04T11:45:08;5.00;;;1.60;;
70433;SDS011;57876;47.792;12.960;2023-12-04T11:47:49;5.73;;;1.83;;
70433;SDS011;57876;47.792;12.960;2023-12-04T11:50:14;5.65;;;1.60;;
70433;SDS011;57876;47.792;12.960;2023-12-04T11:52:39;5.03;;;1.50;;
70433;SDS011;57876;47.792;12.960;2023-12-04T11:55:04;5.60;;;1.75;;
70433;SDS011;57876;47.792;12.960;2023-12-04T11:57:36;5.43;;;1.67;;
70433;SDS011;57876;47.792;12.960;2023-12-04T12:00:07;5.57;;;1.95;;
70433;SDS011;57876;47.792;12.960;2023-12-04T12:02:32;4.95;;;1.67;;
70433;SDS011;57876;47.792;12.960;2023-12-04T12:04:57;5.68;;;1.80;;
70433;SDS011;57876;47.792;12.960;2023-12-04T12:07:22;5.40;;;1.90;;
70433;SDS011;57876;47.792;12.960;2023-12-04T12:09:47;5.90;;;2.00;;
70433;SDS011;57876;47.792;12.960;2023-12-04T12:12:11;6.47;;;2.20;;
70433;SDS011;57876;47.792;12.960;2023-12-04T12:14:37;6.05;;;2.00;;
70433;SDS011;57876;47.792;12.960;2023-12-04T12:17:01;5.90;;;2.10;;
70433;SDS011;57876;47.792;12.960;2023-12-04T12:19:26;6.37;;;2.00;;
70433;SDS011;57876;47.792;12.960;2023-12-04T12:21:50;6.10;;;2.00;;
70433;SDS011;57876;47.792;12.960;2023-12-04T12:24:15;6.07;;;2.00;;
70433;SDS011;57876;47.792;12.960;2023-12-04T12:26:40;5.25;;;1.75;;
70433;SDS011;57876;47.792;12.960;2023-12-04T12:29:05;5.67;;;1.87;;
70433;SDS011;57876;47.792;12.960;2023-12-04T12:31:30;5.07;;;1.77;;
70433;SDS011;57876;47.792;12.960;2023-12-04T12:33:55;6.37;;;1.97;;
70433;SDS011;57876;47.792;12.960;2023-12-04T12:36:19;5.38;;;1.98;;
70433;SDS011;57876;47.792;12.960;2023-12-04T12:38:44;7.17;;;1.97;;
70433;SDS011;57876;47.792;12.960;2023-12-04T12:41:13;5.72;;;1.80;;
70433;SDS011;57876;47.792;12.960;2023-12-04T12:43:40;5.10;;;1.60;;
70433;SDS011;57876;47.792;12.960;2023-12-04T12:46:04;6.30;;;1.90;;
70433;SDS011;57876;47.792;12.960;2023-12-04T12:48:29;6.03;;;2.10;;
70433;SDS011;57876;47.792;12.960;2023-12-04T12:50:54;5.17;;;1.80;;
70433;SDS011;57876;47.792;12.960;2023-12-04T12:53:19;5.72;;;1.95;;
70433;SDS011;57876;47.792;12.960;2023-12-04T12:55:43;5.10;;;1.87;;
70433;SDS011;57876;47.792;12.960;2023-12-04T12:58:11;4.80;;;1.80;;
70433;SDS011;57876;47.792;12.960;2023-12-04T13:00:39;5.22;;;1.80;;
70433;SDS011;57876;47.792;12.960;2023-12-04T13:03:13;5.30;;;1.80;;
70433;SDS011;57876;47.792;12.960;2023-12-04T13:05:38;5.22;;;1.50;;
70433;SDS011;57876;47.792;12.960;2023-12-04T13:08:03;6.43;;;2.10;;
70433;SDS011;57876;47.792;12.960;2023-12-04T13:10:27;5.63;;;1.73;;
70433;SDS011;57876;47.792;12.960;2023-12-04T13:12:51;5.13;;;1.65;;
70433;SDS011;57876;47.792;12.960;2023-12-04T13:15:18;5.47;;;2.10;;
70433;SDS011;57876;47.792;12.960;2023-12-04T13:17:42;5.30;;;1.90;;
70433;SDS011;57876;47.792;12.960;2023-12-04T13:20:06;5.23;;;1.70;;
70433;SDS011;57876;47.792;12.960;2023-12-04T13:22:35;6.60;;;1.70;;
70433;SDS011;57876;47.792;12.960;2023-12-04T13:25:00;5.70;;;1.63;;
70433;SDS011;57876;47.792;12.960;2023-12-04T13:27:26;5.57;;;1.67;;
70433;SDS011;57876;47.792;12.960;2023-12-04T13:29:50;5.97;;;1.80;;
70433;SDS011;57876;47.792;12.960;2023-12-04T13:32:14;5.70;;;1.80;;
70433;SDS011;57876;47.792;12.960;2023-12-04T13:34:39;5.20;;;1.70;;
70433;SDS011;57876;47.792;12.960;2023-12-04T13:37:04;4.93;;;1.50;;
70433;SDS011;57876;47.792;12.960;2023-12-04T13:39:28;5.10;;;1.50;;
70433;SDS011;57876;47.792;12.960;2023-12-04T13:42:11;5.55;;;1.77;;
70433;SDS011;57876;47.792;12.960;2023-12-04T13:44:54;5.75;;;1.80;;
70433;SDS011;57876;47.792;12.960;2023-12-04T13:47:18;5.93;;;1.73;;
70433;SDS011;57876;47.792;12.960;2023-12-04T13:49:43;5.07;;;1.43;;
70433;SDS011;57876;47.792;12.960;2023-12-04T13:52:10;5.38;;;1.63;;
70433;SDS011;57876;47.792;12.960;2023-12-04T13:54:35;5.13;;;1.67;;
70433;SDS011;57876;47.792;12.960;2023-12-04T13:57:08;4.70;;;1.35;;
70433;SDS011;57876;47.792;12.960;2023-12-04T13:59:32;4.60;;;1.40;;
70433;SDS011;57876;47.792;12.960;2023-12-04T14:02:02;4.85;;;1.30;;
70433;SDS011;57876;47.792;12.960;2023-12-04T14:04:28;5.05;;;1.70;;
70433;SDS011;57876;47.792;12.960;2023-12-04T14:06:53;5.10;;;1.60;;
70433;SDS011;57876;47.792;12.960;2023-12-04T14:09:17;5.40;;;1.60;;
70433;SDS011;57876;47.792;12.960;2023-12-04T14:11:42;5.22;;;1.60;;
70433;SDS011;57876;47.792;12.960;2023-12-04T14:14:08;5.43;;;1.50;;
70433;SDS011;57876;47.792;12.960;2023-12-04T14:16:32;5.68;;;1.80;;
70433;SDS011;57876;47.792;12.960;2023-12-04T14:18:57;5.50;;;1.40;;
70433;SDS011;57876;47.792;12.960;2023-12-04T14:21:21;5.23;;;1.40;;